sensor_id;sensor_type;location;lat;lon;timestamp;P1;durP1;ratioP1;P2;durP2;ratioP2
21170;SDS011;10743;52.160;20.910;2023-03-31T00:00:45;15.43;;;8.73;;
21170;SDS011;10743;52.160;20.910;2023-03-31T00:03:12;18.15;;;9.07;;
21170;SDS011;10743;52.160;20.910;2023-03-31T00:05:48;17.27;;;8.23;;
21170;SDS011;10743;52.160;20.910;2023-03-31T00:08:20;18.05;;;8.32;;
21170;SDS011;10743;52.160;20.910;2023-03-31T00:10:47;14.77;;;7.90;;
21170;SDS011;10743;52.160;20.910;2023-03-31T00:13:14;15.57;;;8.07;;
21170;SDS011;10743;52.160;20.910;2023-03-31T00:15:42;15.43;;;8.18;;
21170;SDS011;10743;52.160;20.910;2023-03-31T00:18:09;15.98;;;8.15;;
21170;SDS011;10743;52.160;20.910;2023-03-31T00:20:36;15.70;;;8.40;;
21170;SDS011;10743;52.160;20.910;2023-03-31T00:23:04;17.55;;;8.27;;
21170;SDS011;10743;52.160;20.910;2023-03-31T00:25:39;13.82;;;7.93;;
21170;SDS011;10743;52.160;20.910;2023-03-31T00:28:07;13.65;;;8.10;;
21170;SDS011;10743;52.160;20.910;2023-03-31T00:30:34;15.40;;;7.70;;
21170;SDS011;10743;52.160;20.910;2023-03-31T00:33:01;17.63;;;8.90;;
21170;SDS011;10743;52.160;20.910;2023-03-31T00:35:28;13.60;;;7.93;;
21170;SDS011;10743;52.160;20.910;2023-03-31T00:37:56;15.48;;;8.35;;
21170;SDS011;10743;52.160;20.910;2023-03-31T00:40:23;16.88;;;7.95;;
21170;SDS011;10743;52.160;20.910;2023-03-31T00:42:50;16.92;;;8.10;;
21170;SDS011;10743;52.160;20.910;2023-03-31T00:45:26;14.52;;;8.15;;
21170;SDS011;10743;52.160;20.910;2023-03-31T00:48:02;10.40;;;7.13;;
21170;SDS011;10743;52.160;20.910;2023-03-31T00:50:39;24.65;;;9.90;;
21170;SDS011;10743;52.160;20.910;2023-03-31T00:53:15;28.77;;;11.70;;
21170;SDS011;10743;52.160;20.910;2023-03-31T00:55:49;24.27;;;9.27;;
21170;SDS011;10743;52.160;20.910;2023-03-31T00:58:19;13.23;;;7.70;;
21170;SDS011;10743;52.160;20.910;2023-03-31T01:00:56;16.17;;;7.97;;
21170;SDS011;10743;52.160;20.910;2023-03-31T01:03:28;14.73;;;7.72;;
21170;SDS011;10743;52.160;20.910;2023-03-31T01:06:02;14.85;;;7.45;;
21170;SDS011;10743;52.160;20.910;2023-03-31T01:08:31;13.52;;;6.95;;
21170;SDS011;10743;52.160;20.910;2023-03-31T01:11:05;13.63;;;7.63;;
21170;SDS011;10743;52.160;20.910;2023-03-31T01:13:36;12.25;;;6.97;;
21170;SDS011;10743;52.160;20.910;2023-03-31T01:16:07;11.60;;;6.65;;
21170;SDS011;10743;52.160;20.910;2023-03-31T01:18:35;12.98;;;6.70;;
21170;SDS011;10743;52.160;20.910;2023-03-31T01:28:54;11.75;;;6.80;;
21170;SDS011;10743;52.160;20.910;2023-03-31T01:31:52;13.73;;;7.07;;
21170;SDS011;10743;52.160;20.910;2023-03-31T01:46:58;12.68;;;6.75;;
21170;SDS011;10743;52.160;20.910;2023-03-31T01:49:45;10.43;;;6.43;;
21170;SDS011;10743;52.160;20.910;2023-03-31T01:55:41;14.57;;;7.75;;
21170;SDS011;10743;52.160;20.910;2023-03-31T01:58:30;12.10;;;6.68;;
21170;SDS011;10743;52.160;20.910;2023-03-31T02:01:14;12.52;;;6.35;;
21170;SDS011;10743;52.160;20.910;2023-03-31T02:04:19;14.13;;;6.95;;
21170;SDS011;10743;52.160;20.910;2023-03-31T02:06:47;8.68;;;5.80;;
21170;SDS011;10743;52.160;20.910;2023-03-31T02:09:22;10.93;;;6.63;;
21170;SDS011;10743;52.160;20.910;2023-03-31T02:11:54;10.95;;;5.90;;
21170;SDS011;10743;52.160;20.910;2023-03-31T02:14:25;11.05;;;5.93;;
21170;SDS011;10743;52.160;20.910;2023-03-31T02:16:56;8.80;;;5.57;;
21170;SDS011;10743;52.160;20.910;2023-03-31T02:19:28;12.80;;;7.07;;
21170;SDS011;10743;52.160;20.910;2023-03-31T02:22:01;14.93;;;7.03;;
21170;SDS011;10743;52.160;20.910;2023-03-31T02:24:30;11.05;;;5.88;;
21170;SDS011;10743;52.160;20.910;2023-03-31T02:29:48;12.27;;;6.05;;
21170;SDS011;10743;52.160;20.910;2023-03-31T02:32:30;9.32;;;5.97;;
21170;SDS011;10743;52.160;20.910;2023-03-31T02:35:01;12.35;;;6.18;;
21170;SDS011;10743;52.160;20.910;2023-03-31T02:37:31;10.20;;;6.03;;
21170;SDS011;10743;52.160;20.910;2023-03-31T02:39:59;10.48;;;5.55;;
21170;SDS011;10743;52.160;20.910;2023-03-31T02:42:36;10.73;;;6.28;;
21170;SDS011;10743;52.160;20.910;2023-03-31T02:45:05;9.48;;;5.18;;
21170;SDS011;10743;52.160;20.910;2023-03-31T02:48:04;8.18;;;5.22;;
21170;SDS011;10743;52.160;20.910;2023-03-31T02:50:52;9.35;;;5.53;;
21170;SDS011;10743;52.160;20.910;2023-03-31T03:00:06;8.88;;;5.43;;
21170;SDS011;10743;52.160;20.910;2023-03-31T03:03:22;11.43;;;6.85;;
21170;SDS011;10743;52.160;20.910;2023-03-31T03:12:00;12.63;;;6.60;;
21170;SDS011;10743;52.160;20.910;2023-03-31T03:15:05;9.60;;;5.70;;
21170;SDS011;10743;52.160;20.910;2023-03-31T03:17:40;9.07;;;6.25;;
21170;SDS011;10743;52.160;20.910;2023-03-31T03:20:13;9.10;;;6.05;;
21170;SDS011;10743;52.160;20.910;2023-03-31T03:22:41;10.45;;;5.85;;
21170;SDS011;10743;52.160;20.910;2023-03-31T03:25:09;10.90;;;6.45;;
21170;SDS011;10743;52.160;20.910;2023-03-31T03:27:39;10.43;;;6.28;;
21170;SDS011;10743;52.160;20.910;2023-03-31T03:30:07;10.65;;;6.55;;
21170;SDS011;10743;52.160;20.910;2023-03-31T03:32:36;14.10;;;6.40;;
21170;SDS011;10743;52.160;20.910;2023-03-31T03:35:04;8.45;;;6.05;;
21170;SDS011;10743;52.160;20.910;2023-03-31T03:37:32;9.40;;;6.30;;
21170;SDS011;10743;52.160;20.910;2023-03-31T03:39:59;10.48;;;6.82;;
21170;SDS011;10743;52.160;20.910;2023-03-31T03:42:26;11.15;;;6.50;;
21170;SDS011;10743;52.160;20.910;2023-03-31T03:44:53;15.13;;;6.90;;
21170;SDS011;10743;52.160;20.910;2023-03-31T03:47:20;13.48;;;7.00;;
21170;SDS011;10743;52.160;20.910;2023-03-31T03:49:47;10.52;;;6.22;;
21170;SDS011;10743;52.160;20.910;2023-03-31T03:52:14;11.35;;;6.63;;
21170;SDS011;10743;52.160;20.910;2023-03-31T03:54:41;14.55;;;6.32;;
21170;SDS011;10743;52.160;20.910;2023-03-31T03:57:09;10.95;;;6.47;;
21170;SDS011;10743;52.160;20.910;2023-03-31T03:59:36;12.73;;;6.82;;
21170;SDS011;10743;52.160;20.910;2023-03-31T04:02:03;9.70;;;6.22;;
21170;SDS011;10743;52.160;20.910;2023-03-31T04:04:30;11.77;;;6.50;;
21170;SDS011;10743;52.160;20.910;2023-03-31T04:06:57;11.27;;;6.85;;
21170;SDS011;10743;52.160;20.910;2023-03-31T04:09:24;10.02;;;7.00;;
21170;SDS011;10743;52.160;20.910;2023-03-31T04:11:51;9.48;;;6.45;;
21170;SDS011;10743;52.160;20.910;2023-03-31T04:14:18;10.50;;;6.47;;
21170;SDS011;10743;52.160;20.910;2023-03-31T04:16:45;9.85;;;6.70;;
21170;SDS011;10743;52.160;20.910;2023-03-31T04:19:13;11.48;;;6.25;;
21170;SDS011;10743;52.160;20.910;2023-03-31T04:21:43;13.60;;;6.82;;
21170;SDS011;10743;52.160;20.910;2023-03-31T04:24:11;11.68;;;6.47;;
21170;SDS011;10743;52.160;20.910;2023-03-31T04:26:41;11.73;;;6.95;;
21170;SDS011;10743;52.160;20.910;2023-03-31T04:29:13;10.98;;;6.68;;
21170;SDS011;10743;52.160;20.910;2023-03-31T04:31:45;11.77;;;6.68;;
21170;SDS011;10743;52.160;20.910;2023-03-31T04:34:13;10.82;;;6.72;;
21170;SDS011;10743;52.160;20.910;2023-03-31T04:36:42;13.77;;;6.90;;
21170;SDS011;10743;52.160;20.910;2023-03-31T04:39:17;11.13;;;6.60;;
21170;SDS011;10743;52.160;20.910;2023-03-31T04:41:52;13.88;;;7.25;;
21170;SDS011;10743;52.160;20.910;2023-03-31T04:44:19;10.02;;;6.97;;
21170;SDS011;10743;52.160;20.910;2023-03-31T04:46:46;12.82;;;7.57;;
21170;SDS011;10743;52.160;20.910;2023-03-31T04:49:13;10.35;;;7.20;;
21170;SDS011;10743;52.160;20.910;2023-03-31T04:51:41;12.20;;;7.47;;
21170;SDS011;10743;52.160;20.910;2023-03-31T04:54:08;14.80;;;7.68;;
21170;SDS011;10743;52.160;20.910;2023-03-31T04:56:35;13.70;;;8.18;;
21170;SDS011;10743;52.160;20.910;2023-03-31T04:59:02;16.73;;;8.52;;
21170;SDS011;10743;52.160;20.910;2023-03-31T05:01:29;16.77;;;7.80;;
21170;SDS011;10743;52.160;20.910;2023-03-31T05:03:58;12.65;;;7.80;;
21170;SDS011;10743;52.160;20.910;2023-03-31T05:06:25;16.08;;;8.52;;
21170;SDS011;10743;52.160;20.910;2023-03-31T05:08:52;18.10;;;10.13;;
21170;SDS011;10743;52.160;20.910;2023-03-31T05:11:19;18.48;;;9.57;;
21170;SDS011;10743;52.160;20.910;2023-03-31T05:13:47;19.55;;;9.32;;
21170;SDS011;10743;52.160;20.910;2023-03-31T05:16:14;19.60;;;9.55;;
21170;SDS011;10743;52.160;20.910;2023-03-31T05:18:41;17.73;;;9.48;;
21170;SDS011;10743;52.160;20.910;2023-03-31T05:23:41;14.40;;;9.07;;
21170;SDS011;10743;52.160;20.910;2023-03-31T05:26:08;13.23;;;8.73;;
21170;SDS011;10743;52.160;20.910;2023-03-31T05:28:36;19.55;;;8.90;;
21170;SDS011;10743;52.160;20.910;2023-03-31T05:31:04;13.98;;;8.82;;
21170;SDS011;10743;52.160;20.910;2023-03-31T05:33:33;17.58;;;8.68;;
21170;SDS011;10743;52.160;20.910;2023-03-31T05:36:06;14.13;;;8.55;;
21170;SDS011;10743;52.160;20.910;2023-03-31T05:38:35;17.00;;;9.38;;
21170;SDS011;10743;52.160;20.910;2023-03-31T05:41:02;14.85;;;8.57;;
21170;SDS011;10743;52.160;20.910;2023-03-31T05:43:29;12.95;;;8.48;;
21170;SDS011;10743;52.160;20.910;2023-03-31T05:45:57;16.92;;;8.65;;
21170;SDS011;10743;52.160;20.910;2023-03-31T05:48:24;17.33;;;8.63;;
21170;SDS011;10743;52.160;20.910;2023-03-31T05:50:51;15.38;;;8.82;;
21170;SDS011;10743;52.160;20.910;2023-03-31T05:53:27;17.52;;;8.57;;
21170;SDS011;10743;52.160;20.910;2023-03-31T05:55:59;17.17;;;9.07;;
21170;SDS011;10743;52.160;20.910;2023-03-31T05:58:29;15.77;;;8.88;;
21170;SDS011;10743;52.160;20.910;2023-03-31T06:01:00;45.97;;;21.65;;
21170;SDS011;10743;52.160;20.910;2023-03-31T06:03:34;81.78;;;36.60;;
21170;SDS011;10743;52.160;20.910;2023-03-31T06:06:06;46.33;;;23.73;;
21170;SDS011;10743;52.160;20.910;2023-03-31T06:08:35;19.63;;;12.15;;
21170;SDS011;10743;52.160;20.910;2023-03-31T06:11:06;19.30;;;11.90;;
21170;SDS011;10743;52.160;20.910;2023-03-31T06:13:37;14.43;;;9.32;;
21170;SDS011;10743;52.160;20.910;2023-03-31T06:16:06;14.13;;;8.85;;
21170;SDS011;10743;52.160;20.910;2023-03-31T06:18:34;23.48;;;12.15;;
21170;SDS011;10743;52.160;20.910;2023-03-31T06:21:02;14.90;;;9.55;;
21170;SDS011;10743;52.160;20.910;2023-03-31T06:23:31;16.50;;;9.35;;
21170;SDS011;10743;52.160;20.910;2023-03-31T06:26:03;18.50;;;9.35;;
21170;SDS011;10743;52.160;20.910;2023-03-31T06:28:34;17.65;;;10.43;;
21170;SDS011;10743;52.160;20.910;2023-03-31T06:31:09;18.52;;;10.32;;
21170;SDS011;10743;52.160;20.910;2023-03-31T06:33:42;19.83;;;12.18;;
21170;SDS011;10743;52.160;20.910;2023-03-31T06:36:10;23.38;;;13.88;;
21170;SDS011;10743;52.160;20.910;2023-03-31T06:38:40;18.65;;;11.85;;
21170;SDS011;10743;52.160;20.910;2023-03-31T06:41:07;98.47;;;40.33;;
21170;SDS011;10743;52.160;20.910;2023-03-31T06:43:37;38.00;;;18.92;;
21170;SDS011;10743;52.160;20.910;2023-03-31T06:46:05;60.35;;;32.45;;
21170;SDS011;10743;52.160;20.910;2023-03-31T06:48:33;24.90;;;13.02;;
21170;SDS011;10743;52.160;20.910;2023-03-31T06:51:01;18.60;;;10.23;;
21170;SDS011;10743;52.160;20.910;2023-03-31T06:53:31;21.95;;;12.73;;
21170;SDS011;10743;52.160;20.910;2023-03-31T06:55:58;22.55;;;11.98;;
21170;SDS011;10743;52.160;20.910;2023-03-31T06:58:26;21.48;;;12.20;;
21170;SDS011;10743;52.160;20.910;2023-03-31T07:00:57;22.85;;;12.70;;
21170;SDS011;10743;52.160;20.910;2023-03-31T07:03:24;25.80;;;14.05;;
21170;SDS011;10743;52.160;20.910;2023-03-31T07:05:52;25.98;;;14.13;;
21170;SDS011;10743;52.160;20.910;2023-03-31T07:08:20;23.02;;;12.90;;
21170;SDS011;10743;52.160;20.910;2023-03-31T07:10:53;23.15;;;12.85;;
21170;SDS011;10743;52.160;20.910;2023-03-31T07:13:25;32.55;;;16.27;;
21170;SDS011;10743;52.160;20.910;2023-03-31T07:15:54;24.02;;;14.57;;
21170;SDS011;10743;52.160;20.910;2023-03-31T07:18:21;25.35;;;13.18;;
21170;SDS011;10743;52.160;20.910;2023-03-31T07:21:00;26.45;;;15.48;;
21170;SDS011;10743;52.160;20.910;2023-03-31T07:23:27;47.17;;;23.25;;
21170;SDS011;10743;52.160;20.910;2023-03-31T07:25:54;42.08;;;21.88;;
21170;SDS011;10743;52.160;20.910;2023-03-31T07:28:21;31.08;;;14.40;;
21170;SDS011;10743;52.160;20.910;2023-03-31T07:30:48;44.17;;;23.70;;
21170;SDS011;10743;52.160;20.910;2023-03-31T07:33:16;108.63;;;40.90;;
21170;SDS011;10743;52.160;20.910;2023-03-31T07:35:44;70.20;;;32.53;;
21170;SDS011;10743;52.160;20.910;2023-03-31T07:38:19;52.47;;;27.20;;
21170;SDS011;10743;52.160;20.910;2023-03-31T07:40:46;34.85;;;20.98;;
21170;SDS011;10743;52.160;20.910;2023-03-31T07:43:27;24.58;;;13.68;;
21170;SDS011;10743;52.160;20.910;2023-03-31T07:45:54;27.30;;;14.05;;
21170;SDS011;10743;52.160;20.910;2023-03-31T07:48:21;18.35;;;11.00;;
21170;SDS011;10743;52.160;20.910;2023-03-31T07:50:48;25.25;;;12.32;;
21170;SDS011;10743;52.160;20.910;2023-03-31T07:53:28;24.92;;;13.95;;
21170;SDS011;10743;52.160;20.910;2023-03-31T07:55:55;22.35;;;12.82;;
21170;SDS011;10743;52.160;20.910;2023-03-31T07:58:22;26.95;;;12.75;;
21170;SDS011;10743;52.160;20.910;2023-03-31T08:00:49;18.83;;;11.07;;
21170;SDS011;10743;52.160;20.910;2023-03-31T08:03:16;28.42;;;14.48;;
21170;SDS011;10743;52.160;20.910;2023-03-31T08:05:43;23.90;;;12.68;;
21170;SDS011;10743;52.160;20.910;2023-03-31T08:08:10;21.02;;;12.55;;
21170;SDS011;10743;52.160;20.910;2023-03-31T08:10:37;21.10;;;11.20;;
21170;SDS011;10743;52.160;20.910;2023-03-31T08:13:04;15.63;;;9.05;;
21170;SDS011;10743;52.160;20.910;2023-03-31T08:15:31;25.58;;;11.30;;
21170;SDS011;10743;52.160;20.910;2023-03-31T08:17:58;17.23;;;8.48;;
21170;SDS011;10743;52.160;20.910;2023-03-31T08:20:25;20.60;;;10.43;;
21170;SDS011;10743;52.160;20.910;2023-03-31T08:22:52;16.42;;;8.02;;
21170;SDS011;10743;52.160;20.910;2023-03-31T08:25:19;18.52;;;8.38;;
21170;SDS011;10743;52.160;20.910;2023-03-31T08:27:46;20.40;;;9.85;;
21170;SDS011;10743;52.160;20.910;2023-03-31T08:30:17;15.60;;;7.55;;
21170;SDS011;10743;52.160;20.910;2023-03-31T08:32:45;18.30;;;8.00;;
21170;SDS011;10743;52.160;20.910;2023-03-31T08:35:12;15.80;;;8.00;;
21170;SDS011;10743;52.160;20.910;2023-03-31T08:37:40;17.15;;;8.60;;
21170;SDS011;10743;52.160;20.910;2023-03-31T08:40:07;20.23;;;9.13;;
21170;SDS011;10743;52.160;20.910;2023-03-31T08:42:52;15.15;;;8.20;;
21170;SDS011;10743;52.160;20.910;2023-03-31T08:48:44;20.50;;;9.98;;
21170;SDS011;10743;52.160;20.910;2023-03-31T08:50:54;17.70;;;8.32;;
21170;SDS011;10743;52.160;20.910;2023-03-31T08:53:41;15.85;;;7.60;;
21170;SDS011;10743;52.160;20.910;2023-03-31T08:56:14;11.05;;;6.65;;
21170;SDS011;10743;52.160;20.910;2023-03-31T08:58:46;13.52;;;7.85;;
21170;SDS011;10743;52.160;20.910;2023-03-31T09:06:57;14.23;;;7.40;;
21170;SDS011;10743;52.160;20.910;2023-03-31T09:18:42;15.98;;;7.20;;
21170;SDS011;10743;52.160;20.910;2023-03-31T09:21:15;17.77;;;7.70;;
21170;SDS011;10743;52.160;20.910;2023-03-31T09:24:02;12.98;;;6.40;;
21170;SDS011;10743;52.160;20.910;2023-03-31T09:32:16;18.25;;;6.28;;
21170;SDS011;10743;52.160;20.910;2023-03-31T09:34:58;12.20;;;5.80;;
21170;SDS011;10743;52.160;20.910;2023-03-31T09:37:38;14.70;;;6.47;;
21170;SDS011;10743;52.160;20.910;2023-03-31T09:40:05;14.38;;;5.40;;
21170;SDS011;10743;52.160;20.910;2023-03-31T09:42:35;14.15;;;6.10;;
21170;SDS011;10743;52.160;20.910;2023-03-31T09:45:03;15.88;;;5.28;;
21170;SDS011;10743;52.160;20.910;2023-03-31T09:47:36;15.70;;;6.65;;
21170;SDS011;10743;52.160;20.910;2023-03-31T09:50:10;14.27;;;5.05;;
21170;SDS011;10743;52.160;20.910;2023-03-31T09:52:49;12.70;;;4.65;;
21170;SDS011;10743;52.160;20.910;2023-03-31T09:55:19;13.43;;;4.88;;
21170;SDS011;10743;52.160;20.910;2023-03-31T09:58:05;11.50;;;5.07;;
21170;SDS011;10743;52.160;20.910;2023-03-31T10:00:42;11.05;;;4.60;;
21170;SDS011;10743;52.160;20.910;2023-03-31T10:03:22;14.13;;;5.03;;
21170;SDS011;10743;52.160;20.910;2023-03-31T10:05:51;15.48;;;6.07;;
21170;SDS011;10743;52.160;20.910;2023-03-31T10:08:26;10.43;;;4.35;;
21170;SDS011;10743;52.160;20.910;2023-03-31T10:16:22;13.98;;;4.88;;
21170;SDS011;10743;52.160;20.910;2023-03-31T10:21:54;12.15;;;4.45;;
21170;SDS011;10743;52.160;20.910;2023-03-31T10:24:38;10.60;;;4.18;;
21170;SDS011;10743;52.160;20.910;2023-03-31T10:27:18;15.30;;;4.13;;
21170;SDS011;10743;52.160;20.910;2023-03-31T10:29:52;15.50;;;4.03;;
21170;SDS011;10743;52.160;20.910;2023-03-31T10:34:51;15.68;;;5.45;;
21170;SDS011;10743;52.160;20.910;2023-03-31T10:37:20;11.75;;;4.50;;
21170;SDS011;10743;52.160;20.910;2023-03-31T10:39:57;11.63;;;4.78;;
21170;SDS011;10743;52.160;20.910;2023-03-31T10:42:44;16.90;;;4.90;;
21170;SDS011;10743;52.160;20.910;2023-03-31T10:45:24;14.93;;;4.88;;
21170;SDS011;10743;52.160;20.910;2023-03-31T10:48:03;12.65;;;3.78;;
21170;SDS011;10743;52.160;20.910;2023-03-31T10:50:43;13.43;;;3.90;;
21170;SDS011;10743;52.160;20.910;2023-03-31T10:53:11;19.98;;;6.03;;
21170;SDS011;10743;52.160;20.910;2023-03-31T10:55:53;16.50;;;4.00;;
21170;SDS011;10743;52.160;20.910;2023-03-31T11:10:20;16.35;;;5.55;;
21170;SDS011;10743;52.160;20.910;2023-03-31T11:27:51;15.35;;;5.32;;
21170;SDS011;10743;52.160;20.910;2023-03-31T11:30:37;18.90;;;5.45;;
21170;SDS011;10743;52.160;20.910;2023-03-31T11:39:14;14.25;;;4.13;;
21170;SDS011;10743;52.160;20.910;2023-03-31T11:42:15;16.70;;;4.90;;
21170;SDS011;10743;52.160;20.910;2023-03-31T11:44:49;14.65;;;4.80;;
21170;SDS011;10743;52.160;20.910;2023-03-31T11:47:33;12.90;;;4.45;;
21170;SDS011;10743;52.160;20.910;2023-03-31T11:50:03;15.95;;;4.32;;
21170;SDS011;10743;52.160;20.910;2023-03-31T11:52:39;14.27;;;4.50;;
21170;SDS011;10743;52.160;20.910;2023-03-31T11:55:28;15.85;;;4.63;;
21170;SDS011;10743;52.160;20.910;2023-03-31T11:58:11;16.13;;;4.93;;
21170;SDS011;10743;52.160;20.910;2023-03-31T12:01:17;23.63;;;10.18;;
21170;SDS011;10743;52.160;20.910;2023-03-31T12:06:32;12.98;;;4.90;;
21170;SDS011;10743;52.160;20.910;2023-03-31T12:09:22;15.63;;;5.45;;
21170;SDS011;10743;52.160;20.910;2023-03-31T12:12:23;30.98;;;9.57;;
21170;SDS011;10743;52.160;20.910;2023-03-31T12:17:46;16.23;;;5.63;;
21170;SDS011;10743;52.160;20.910;2023-03-31T12:23:03;14.57;;;5.68;;
21170;SDS011;10743;52.160;20.910;2023-03-31T12:25:40;13.73;;;5.10;;
21170;SDS011;10743;52.160;20.910;2023-03-31T12:28:40;10.38;;;3.97;;
21170;SDS011;10743;52.160;20.910;2023-03-31T12:31:10;13.77;;;6.05;;
21170;SDS011;10743;52.160;20.910;2023-03-31T12:33:48;12.68;;;5.32;;
21170;SDS011;10743;52.160;20.910;2023-03-31T12:46:06;6.40;;;3.60;;
21170;SDS011;10743;52.160;20.910;2023-03-31T12:54:09;7.60;;;3.83;;
21170;SDS011;10743;52.160;20.910;2023-03-31T13:02:24;6.45;;;2.70;;
21170;SDS011;10743;52.160;20.910;2023-03-31T13:04:51;13.90;;;3.75;;
21170;SDS011;10743;52.160;20.910;2023-03-31T13:09:57;22.25;;;7.55;;
21170;SDS011;10743;52.160;20.910;2023-03-31T13:13:03;47.17;;;20.27;;
21170;SDS011;10743;52.160;20.910;2023-03-31T13:15:37;9.38;;;4.63;;
21170;SDS011;10743;52.160;20.910;2023-03-31T13:18:05;9.43;;;3.50;;
21170;SDS011;10743;52.160;20.910;2023-03-31T13:20:36;9.32;;;3.38;;
21170;SDS011;10743;52.160;20.910;2023-03-31T13:23:16;6.47;;;2.78;;
21170;SDS011;10743;52.160;20.910;2023-03-31T13:28:23;6.47;;;2.63;;
21170;SDS011;10743;52.160;20.910;2023-03-31T13:31:00;4.57;;;2.33;;
21170;SDS011;10743;52.160;20.910;2023-03-31T13:48:52;7.68;;;2.47;;
21170;SDS011;10743;52.160;20.910;2023-03-31T13:51:14;4.53;;;2.17;;
21170;SDS011;10743;52.160;20.910;2023-03-31T13:59:47;3.90;;;1.90;;
21170;SDS011;10743;52.160;20.910;2023-03-31T14:05:17;4.03;;;1.90;;
21170;SDS011;10743;52.160;20.910;2023-03-31T14:08:04;4.25;;;2.22;;
21170;SDS011;10743;52.160;20.910;2023-03-31T14:10:41;6.35;;;2.42;;
21170;SDS011;10743;52.160;20.910;2023-03-31T14:13:13;5.63;;;2.17;;
21170;SDS011;10743;52.160;20.910;2023-03-31T14:15:49;6.80;;;3.35;;
21170;SDS011;10743;52.160;20.910;2023-03-31T14:24:12;19.65;;;8.57;;
21170;SDS011;10743;52.160;20.910;2023-03-31T14:30:27;13.57;;;6.15;;
21170;SDS011;10743;52.160;20.910;2023-03-31T14:33:24;6.88;;;2.88;;
21170;SDS011;10743;52.160;20.910;2023-03-31T14:38:47;4.97;;;3.08;;
21170;SDS011;10743;52.160;20.910;2023-03-31T14:41:15;7.45;;;3.15;;
21170;SDS011;10743;52.160;20.910;2023-03-31T14:43:56;6.40;;;2.85;;
21170;SDS011;10743;52.160;20.910;2023-03-31T14:46:28;4.65;;;2.55;;
21170;SDS011;10743;52.160;20.910;2023-03-31T14:49:05;9.30;;;2.78;;
21170;SDS011;10743;52.160;20.910;2023-03-31T14:52:00;8.02;;;2.97;;
21170;SDS011;10743;52.160;20.910;2023-03-31T14:54:48;6.07;;;2.30;;
21170;SDS011;10743;52.160;20.910;2023-03-31T14:57:19;6.50;;;2.63;;
21170;SDS011;10743;52.160;20.910;2023-03-31T14:59:55;6.53;;;2.72;;
21170;SDS011;10743;52.160;20.910;2023-03-31T15:02:27;8.23;;;2.50;;
21170;SDS011;10743;52.160;20.910;2023-03-31T15:05:06;7.40;;;2.83;;
21170;SDS011;10743;52.160;20.910;2023-03-31T15:07:40;8.65;;;3.35;;
21170;SDS011;10743;52.160;20.910;2023-03-31T15:10:07;9.48;;;3.78;;
21170;SDS011;10743;52.160;20.910;2023-03-31T15:12:43;8.80;;;3.20;;
21170;SDS011;10743;52.160;20.910;2023-03-31T15:15:11;7.55;;;3.25;;
21170;SDS011;10743;52.160;20.910;2023-03-31T15:17:40;4.07;;;2.45;;
21170;SDS011;10743;52.160;20.910;2023-03-31T15:22:54;8.00;;;2.55;;
21170;SDS011;10743;52.160;20.910;2023-03-31T15:25:26;2.63;;;2.15;;
21170;SDS011;10743;52.160;20.910;2023-03-31T15:28:01;4.15;;;1.95;;
21170;SDS011;10743;52.160;20.910;2023-03-31T15:30:32;2.38;;;1.88;;
21170;SDS011;10743;52.160;20.910;2023-03-31T15:33:04;3.47;;;1.70;;
21170;SDS011;10743;52.160;20.910;2023-03-31T15:35:44;1.88;;;1.60;;
21170;SDS011;10743;52.160;20.910;2023-03-31T15:38:12;2.78;;;1.98;;
21170;SDS011;10743;52.160;20.910;2023-03-31T15:40:44;2.92;;;2.63;;
21170;SDS011;10743;52.160;20.910;2023-03-31T15:45:58;6.05;;;3.63;;
21170;SDS011;10743;52.160;20.910;2023-03-31T15:51:20;5.72;;;2.75;;
21170;SDS011;10743;52.160;20.910;2023-03-31T15:54:00;2.50;;;1.83;;
21170;SDS011;10743;52.160;20.910;2023-03-31T15:56:33;3.20;;;2.15;;
21170;SDS011;10743;52.160;20.910;2023-03-31T15:59:24;2.72;;;1.85;;
21170;SDS011;10743;52.160;20.910;2023-03-31T16:02:08;4.93;;;2.08;;
21170;SDS011;10743;52.160;20.910;2023-03-31T16:04:40;8.27;;;2.92;;
21170;SDS011;10743;52.160;20.910;2023-03-31T16:07:08;13.35;;;4.50;;
21170;SDS011;10743;52.160;20.910;2023-03-31T16:10:09;6.75;;;2.67;;
21170;SDS011;10743;52.160;20.910;2023-03-31T16:12:53;2.75;;;1.90;;
21170;SDS011;10743;52.160;20.910;2023-03-31T16:15:50;4.43;;;2.40;;
21170;SDS011;10743;52.160;20.910;2023-03-31T16:18:23;6.47;;;3.50;;
21170;SDS011;10743;52.160;20.910;2023-03-31T16:20:55;6.53;;;3.30;;
21170;SDS011;10743;52.160;20.910;2023-03-31T16:23:27;7.32;;;3.58;;
21170;SDS011;10743;52.160;20.910;2023-03-31T16:25:57;7.95;;;4.53;;
21170;SDS011;10743;52.160;20.910;2023-03-31T16:28:26;7.28;;;3.88;;
21170;SDS011;10743;52.160;20.910;2023-03-31T16:30:57;5.95;;;3.80;;
21170;SDS011;10743;52.160;20.910;2023-03-31T16:33:28;7.55;;;4.55;;
21170;SDS011;10743;52.160;20.910;2023-03-31T16:35:57;4.47;;;3.58;;
21170;SDS011;10743;52.160;20.910;2023-03-31T16:38:28;9.27;;;3.47;;
21170;SDS011;10743;52.160;20.910;2023-03-31T16:40:56;6.93;;;2.80;;
21170;SDS011;10743;52.160;20.910;2023-03-31T16:43:25;5.65;;;3.35;;
21170;SDS011;10743;52.160;20.910;2023-03-31T16:45:55;5.53;;;3.40;;
21170;SDS011;10743;52.160;20.910;2023-03-31T16:48:25;7.43;;;4.20;;
21170;SDS011;10743;52.160;20.910;2023-03-31T16:50:55;8.90;;;4.18;;
21170;SDS011;10743;52.160;20.910;2023-03-31T16:53:24;7.65;;;3.80;;
21170;SDS011;10743;52.160;20.910;2023-03-31T16:55:59;5.93;;;3.80;;
21170;SDS011;10743;52.160;20.910;2023-03-31T16:58:26;7.43;;;4.22;;
21170;SDS011;10743;52.160;20.910;2023-03-31T17:00:55;11.23;;;5.70;;
21170;SDS011;10743;52.160;20.910;2023-03-31T17:03:23;21.08;;;7.00;;
21170;SDS011;10743;52.160;20.910;2023-03-31T17:05:51;19.73;;;8.68;;
21170;SDS011;10743;52.160;20.910;2023-03-31T17:08:25;21.52;;;8.45;;
21170;SDS011;10743;52.160;20.910;2023-03-31T17:11:03;15.52;;;6.10;;
21170;SDS011;10743;52.160;20.910;2023-03-31T17:13:33;11.93;;;6.43;;
21170;SDS011;10743;52.160;20.910;2023-03-31T17:16:00;12.23;;;6.25;;
21170;SDS011;10743;52.160;20.910;2023-03-31T17:18:47;12.63;;;6.47;;
21170;SDS011;10743;52.160;20.910;2023-03-31T17:21:15;14.52;;;7.63;;
21170;SDS011;10743;52.160;20.910;2023-03-31T17:23:44;43.75;;;22.10;;
21170;SDS011;10743;52.160;20.910;2023-03-31T17:26:13;19.15;;;9.55;;
21170;SDS011;10743;52.160;20.910;2023-03-31T17:28:41;11.43;;;6.00;;
21170;SDS011;10743;52.160;20.910;2023-03-31T17:31:13;11.30;;;5.32;;
21170;SDS011;10743;52.160;20.910;2023-03-31T17:33:42;11.07;;;5.30;;
21170;SDS011;10743;52.160;20.910;2023-03-31T17:36:10;15.98;;;6.75;;
21170;SDS011;10743;52.160;20.910;2023-03-31T17:38:37;12.73;;;6.05;;
21170;SDS011;10743;52.160;20.910;2023-03-31T17:41:06;12.07;;;6.00;;
21170;SDS011;10743;52.160;20.910;2023-03-31T17:43:35;9.50;;;6.28;;
21170;SDS011;10743;52.160;20.910;2023-03-31T17:46:04;9.35;;;5.22;;
21170;SDS011;10743;52.160;20.910;2023-03-31T17:48:37;11.98;;;5.32;;
21170;SDS011;10743;52.160;20.910;2023-03-31T17:51:05;14.30;;;7.57;;
21170;SDS011;10743;52.160;20.910;2023-03-31T17:53:45;28.83;;;13.73;;
21170;SDS011;10743;52.160;20.910;2023-03-31T17:56:13;39.60;;;16.40;;
21170;SDS011;10743;52.160;20.910;2023-03-31T17:58:42;30.75;;;13.30;;
21170;SDS011;10743;52.160;20.910;2023-03-31T18:01:09;23.15;;;10.43;;
21170;SDS011;10743;52.160;20.910;2023-03-31T18:03:39;18.15;;;8.80;;